sensor_id;sensor_type;location;lat;lon;timestamp;pressure;altitude;pressure_sealevel;temperature;humidity
49813;BME280;35706;52.100;5.056;2023-11-18T00:00:05;102239.88;;;9.97;93.17
49813;BME280;35706;52.100;5.056;2023-11-18T00:01:11;102235.44;;;9.97;93.27
49813;BME280;35706;52.100;5.056;2023-11-18T00:02:12;102237.03;;;10.00;93.43
49813;BME280;35706;52.100;5.056;2023-11-18T00:03:13;102232.94;;;9.82;93.64
49813;BME280;35706;52.100;5.056;2023-11-18T00:04:14;102240.88;;;9.94;93.92
49813;BME280;35706;52.100;5.056;2023-11-18T00:05:17;102239.66;;;10.00;92.77
49813;BME280;35706;52.100;5.056;2023-11-18T00:06:17;102239.88;;;9.97;93.32
49813;BME280;35706;52.100;5.056;2023-11-18T00:07:18;102244.91;;;10.00;93.13
49813;BME280;35706;52.100;5.056;2023-11-18T00:08:18;102237.56;;;10.05;93.30
49813;BME280;35706;52.100;5.056;2023-11-18T00:09:19;102241.59;;;10.11;92.92
49813;BME280;35706;52.100;5.056;2023-11-18T00:10:20;102238.31;;;10.07;93.02
49813;BME280;35706;52.100;5.056;2023-11-18T00:11:20;102241.47;;;10.27;92.29
49813;BME280;35706;52.100;5.056;2023-11-18T00:12:20;102242.44;;;10.11;92.48
49813;BME280;35706;52.100;5.056;2023-11-18T00:13:21;102239.63;;;10.14;92.36
49813;BME280;35706;52.100;5.056;2023-11-18T00:14:21;102233.63;;;10.12;92.36
49813;BME280;35706;52.100;5.056;2023-11-18T00:15:22;102232.91;;;9.96;92.79
49813;BME280;35706;52.100;5.056;2023-11-18T00:16:22;102232.25;;;9.92;93.37
49813;BME280;35706;52.100;5.056;2023-11-18T00:17:22;102229.91;;;10.02;92.94
49813;BME280;35706;52.100;5.056;2023-11-18T00:18:23;102237.63;;;9.91;93.61
49813;BME280;35706;52.100;5.056;2023-11-18T00:19:23;102234.78;;;9.94;92.92
49813;BME280;35706;52.100;5.056;2023-11-18T00:20:24;102234.19;;;10.03;93.26
49813;BME280;35706;52.100;5.056;2023-11-18T00:21:24;102234.75;;;10.08;93.20
49813;BME280;35706;52.100;5.056;2023-11-18T00:22:24;102231.75;;;10.14;92.98
49813;BME280;35706;52.100;5.056;2023-11-18T00:23:25;102244.22;;;10.11;92.32
49813;BME280;35706;52.100;5.056;2023-11-18T00:24:27;102240.09;;;10.07;93.07
49813;BME280;35706;52.100;5.056;2023-11-18T00:25:28;102231.56;;;10.03;92.96
49813;BME280;35706;52.100;5.056;2023-11-18T00:26:28;102228.28;;;10.14;92.81
49813;BME280;35706;52.100;5.056;2023-11-18T00:27:29;102228.81;;;10.19;92.65
49813;BME280;35706;52.100;5.056;2023-11-18T00:28:29;102230.25;;;10.10;92.45
49813;BME280;35706;52.100;5.056;2023-11-18T00:29:30;102228.72;;;10.21;92.13
49813;BME280;35706;52.100;5.056;2023-11-18T00:30:30;102232.56;;;10.15;92.16
49813;BME280;35706;52.100;5.056;2023-11-18T00:31:30;102233.81;;;10.09;92.46
49813;BME280;35706;52.100;5.056;2023-11-18T00:32:31;102229.25;;;9.98;93.67
49813;BME280;35706;52.100;5.056;2023-11-18T00:33:32;102234.03;;;9.92;93.65
49813;BME280;35706;52.100;5.056;2023-11-18T00:34:33;102225.88;;;9.96;93.61
49813;BME280;35706;52.100;5.056;2023-11-18T00:35:33;102232.44;;;10.04;93.21
49813;BME280;35706;52.100;5.056;2023-11-18T00:36:34;102233.59;;;9.85;94.27
49813;BME280;35706;52.100;5.056;2023-11-18T00:37:35;102238.38;;;9.93;94.68
49813;BME280;35706;52.100;5.056;2023-11-18T00:38:36;102239.31;;;9.92;94.11
49813;BME280;35706;52.100;5.056;2023-11-18T00:39:36;102229.94;;;9.88;94.18
49813;BME280;35706;52.100;5.056;2023-11-18T00:40:37;102238.63;;;10.03;93.80
49813;BME280;35706;52.100;5.056;2023-11-18T00:41:37;102237.47;;;10.07;93.45
49813;BME280;35706;52.100;5.056;2023-11-18T00:42:38;102239.19;;;10.08;93.03
49813;BME280;35706;52.100;5.056;2023-11-18T00:43:38;102238.91;;;9.98;93.68
49813;BME280;35706;52.100;5.056;2023-11-18T00:44:39;102236.13;;;9.87;94.20
49813;BME280;35706;52.100;5.056;2023-11-18T00:45:40;102231.94;;;9.84;94.29
49813;BME280;35706;52.100;5.056;2023-11-18T00:46:41;102236.66;;;9.92;94.13
49813;BME280;35706;52.100;5.056;2023-11-18T00:47:41;102236.06;;;10.01;93.48
49813;BME280;35706;52.100;5.056;2023-11-18T00:48:42;102234.72;;;9.81;94.42
49813;BME280;35706;52.100;5.056;2023-11-18T00:49:42;102241.00;;;9.93;94.36
49813;BME280;35706;52.100;5.056;2023-11-18T00:50:43;102228.50;;;9.96;93.61
49813;BME280;35706;52.100;5.056;2023-11-18T00:51:46;102236.38;;;9.96;93.64
49813;BME280;35706;52.100;5.056;2023-11-18T00:52:46;102235.84;;;9.91;93.95
49813;BME280;35706;52.100;5.056;2023-11-18T00:53:49;102236.75;;;9.90;93.95
49813;BME280;35706;52.100;5.056;2023-11-18T00:54:50;102237.03;;;10.00;93.61
49813;BME280;35706;52.100;5.056;2023-11-18T00:55:50;102236.25;;;10.12;93.26
49813;BME280;35706;52.100;5.056;2023-11-18T00:56:50;102233.56;;;9.99;93.47
49813;BME280;35706;52.100;5.056;2023-11-18T00:57:51;102238.81;;;9.99;93.22
49813;BME280;35706;52.100;5.056;2023-11-18T00:58:51;102241.56;;;9.84;93.61
49813;BME280;35706;52.100;5.056;2023-11-18T00:59:52;102234.13;;;9.90;93.65
49813;BME280;35706;52.100;5.056;2023-11-18T01:00:53;102237.13;;;9.98;93.61
49813;BME280;35706;52.100;5.056;2023-11-18T01:01:53;102239.66;;;10.00;92.99
49813;BME280;35706;52.100;5.056;2023-11-18T01:02:53;102230.97;;;9.85;93.80
49813;BME280;35706;52.100;5.056;2023-11-18T01:03:56;102232.81;;;9.97;93.30
49813;BME280;35706;52.100;5.056;2023-11-18T01:04:59;102234.09;;;10.05;92.96
49813;BME280;35706;52.100;5.056;2023-11-18T01:05:59;102235.69;;;10.07;92.99
49813;BME280;35706;52.100;5.056;2023-11-18T01:07:01;102232.44;;;10.04;93.21
49813;BME280;35706;52.100;5.056;2023-11-18T01:08:01;102240.84;;;10.09;92.96
49813;BME280;35706;52.100;5.056;2023-11-18T01:09:01;102235.50;;;10.10;93.00
49813;BME280;35706;52.100;5.056;2023-11-18T01:10:02;102242.81;;;10.05;92.79
49813;BME280;35706;52.100;5.056;2023-11-18T01:11:04;102240.50;;;10.28;92.28
49813;BME280;35706;52.100;5.056;2023-11-18T01:12:05;102246.00;;;10.10;92.75
49813;BME280;35706;52.100;5.056;2023-11-18T01:13:08;102239.44;;;10.03;93.27
49813;BME280;35706;52.100;5.056;2023-11-18T01:14:09;102245.13;;;9.97;93.12
49813;BME280;35706;52.100;5.056;2023-11-18T01:15:09;102248.59;;;9.97;93.55
49813;BME280;35706;52.100;5.056;2023-11-18T01:16:10;102253.53;;;10.02;93.11
49813;BME280;35706;52.100;5.056;2023-11-18T01:17:13;102249.88;;;9.63;94.66
49813;BME280;35706;52.100;5.056;2023-11-18T01:18:14;102247.31;;;9.76;94.76
49813;BME280;35706;52.100;5.056;2023-11-18T01:19:15;102245.81;;;9.72;94.82
49813;BME280;35706;52.100;5.056;2023-11-18T01:20:15;102244.41;;;9.81;94.40
49813;BME280;35706;52.100;5.056;2023-11-18T01:21:21;102241.47;;;9.85;94.01
49813;BME280;35706;52.100;5.056;2023-11-18T01:22:21;102238.00;;;9.85;93.96
49813;BME280;35706;52.100;5.056;2023-11-18T01:23:22;102247.03;;;9.66;94.81
49813;BME280;35706;52.100;5.056;2023-11-18T01:24:22;102239.81;;;9.84;94.11
49813;BME280;35706;52.100;5.056;2023-11-18T01:25:22;102233.69;;;9.84;93.97
49813;BME280;35706;52.100;5.056;2023-11-18T01:26:23;102233.91;;;9.81;94.02
49813;BME280;35706;52.100;5.056;2023-11-18T01:27:23;102235.94;;;9.75;94.19
49813;BME280;35706;52.100;5.056;2023-11-18T01:28:23;102234.25;;;9.89;93.66
49813;BME280;35706;52.100;5.056;2023-11-18T01:29:26;102240.38;;;9.75;93.96
49813;BME280;35706;52.100;5.056;2023-11-18T01:30:27;102235.88;;;9.63;94.54
49813;BME280;35706;52.100;5.056;2023-11-18T01:31:27;102240.75;;;9.54;94.67
49813;BME280;35706;52.100;5.056;2023-11-18T01:32:27;102239.38;;;9.63;94.45
49813;BME280;35706;52.100;5.056;2023-11-18T01:33:30;102243.94;;;9.74;94.57
49813;BME280;35706;52.100;5.056;2023-11-18T01:34:32;102237.50;;;9.65;94.42
49813;BME280;35706;52.100;5.056;2023-11-18T01:35:34;102240.06;;;9.79;94.06
49813;BME280;35706;52.100;5.056;2023-11-18T01:36:34;102245.16;;;9.83;93.80
49813;BME280;35706;52.100;5.056;2023-11-18T01:37:35;102240.28;;;9.62;94.26
49813;BME280;35706;52.100;5.056;2023-11-18T01:38:37;102239.06;;;9.82;94.09
49813;BME280;35706;52.100;5.056;2023-11-18T01:39:41;102254.53;;;9.72;94.23
49813;BME280;35706;52.100;5.056;2023-11-18T01:40:42;102253.88;;;9.69;94.23
49813;BME280;35706;52.100;5.056;2023-11-18T01:41:42;102245.81;;;9.72;94.05
49813;BME280;35706;52.100;5.056;2023-11-18T01:42:45;102257.38;;;9.96;93.80
49813;BME280;35706;52.100;5.056;2023-11-18T01:43:46;102254.44;;;9.74;93.73
49813;BME280;35706;52.100;5.056;2023-11-18T01:44:47;102254.38;;;9.61;94.44
49813;BME280;35706;52.100;5.056;2023-11-18T01:45:47;102251.53;;;9.64;94.53
49813;BME280;35706;52.100;5.056;2023-11-18T01:46:48;102246.50;;;9.61;94.28
49813;BME280;35706;52.100;5.056;2023-11-18T01:47:49;102240.88;;;9.67;94.18
49813;BME280;35706;52.100;5.056;2023-11-18T01:48:50;102234.38;;;9.58;94.89
49813;BME280;35706;52.100;5.056;2023-11-18T01:49:52;102242.16;;;9.60;94.54
49813;BME280;35706;52.100;5.056;2023-11-18T01:50:54;102237.66;;;9.76;94.31
49813;BME280;35706;52.100;5.056;2023-11-18T01:51:58;102239.31;;;9.77;93.78
49813;BME280;35706;52.100;5.056;2023-11-18T01:53:01;102240.56;;;9.72;93.70
49813;BME280;35706;52.100;5.056;2023-11-18T01:54:03;102244.78;;;9.46;95.13
49813;BME280;35706;52.100;5.056;2023-11-18T01:55:05;102246.50;;;9.61;94.93
49813;BME280;35706;52.100;5.056;2023-11-18T01:56:07;102253.34;;;9.49;95.04
49813;BME280;35706;52.100;5.056;2023-11-18T01:57:08;102248.47;;;9.57;94.74
49813;BME280;35706;52.100;5.056;2023-11-18T01:58:09;102244.03;;;9.72;94.17
49813;BME280;35706;52.100;5.056;2023-11-18T01:59:11;102240.38;;;9.61;94.38
49813;BME280;35706;52.100;5.056;2023-11-18T02:00:18;102244.22;;;9.69;94.22
49813;BME280;35706;52.100;5.056;2023-11-18T02:01:19;102246.13;;;9.67;94.21
49813;BME280;35706;52.100;5.056;2023-11-18T02:02:19;102240.88;;;9.53;94.63
49813;BME280;35706;52.100;5.056;2023-11-18T02:03:22;102246.94;;;9.68;94.27
49813;BME280;35706;52.100;5.056;2023-11-18T02:04:23;102247.25;;;9.63;94.11
49813;BME280;35706;52.100;5.056;2023-11-18T02:05:24;102267.84;;;9.69;94.03
49813;BME280;35706;52.100;5.056;2023-11-18T02:06:25;102262.56;;;9.84;93.76
49813;BME280;35706;52.100;5.056;2023-11-18T02:07:25;102266.06;;;9.84;93.23
49813;BME280;35706;52.100;5.056;2023-11-18T02:08:25;102255.44;;;9.86;93.12
49813;BME280;35706;52.100;5.056;2023-11-18T02:09:28;102258.91;;;9.86;93.24
49813;BME280;35706;52.100;5.056;2023-11-18T02:10:28;102255.66;;;9.83;93.22
49813;BME280;35706;52.100;5.056;2023-11-18T02:11:37;102261.34;;;9.89;93.13
49813;BME280;35706;52.100;5.056;2023-11-18T02:13:09;102252.63;;;9.89;93.25
49813;BME280;35706;52.100;5.056;2023-11-18T02:14:14;102252.06;;;9.84;93.36
49813;BME280;35706;52.100;5.056;2023-11-18T02:15:16;102261.47;;;9.73;93.40
49813;BME280;35706;52.100;5.056;2023-11-18T02:16:19;102257.63;;;9.79;93.21
49813;BME280;35706;52.100;5.056;2023-11-18T02:17:22;102254.53;;;9.87;93.70
49813;BME280;35706;52.100;5.056;2023-11-18T02:18:27;102251.84;;;10.01;92.66
49813;BME280;35706;52.100;5.056;2023-11-18T02:19:29;102258.94;;;9.72;93.49
49813;BME280;35706;52.100;5.056;2023-11-18T02:20:31;102258.38;;;9.67;93.95
49813;BME280;35706;52.100;5.056;2023-11-18T02:21:34;102255.75;;;9.52;94.50
49813;BME280;35706;52.100;5.056;2023-11-18T02:22:34;102263.38;;;9.43;94.54
49813;BME280;35706;52.100;5.056;2023-11-18T02:23:34;102257.84;;;9.19;95.26
49813;BME280;35706;52.100;5.056;2023-11-18T02:24:35;102260.38;;;9.34;95.49
49813;BME280;35706;52.100;5.056;2023-11-18T02:25:44;102262.63;;;9.55;95.14
49813;BME280;35706;52.100;5.056;2023-11-18T02:26:45;102252.28;;;9.37;95.42
49813;BME280;35706;52.100;5.056;2023-11-18T02:27:46;102263.44;;;9.41;95.59
49813;BME280;35706;52.100;5.056;2023-11-18T02:28:48;102259.53;;;9.34;95.39
49813;BME280;35706;52.100;5.056;2023-11-18T02:29:49;102250.16;;;9.44;95.44
49813;BME280;35706;52.100;5.056;2023-11-18T02:30:54;102247.78;;;9.68;95.03
49813;BME280;35706;52.100;5.056;2023-11-18T02:32:15;102247.56;;;9.86;94.06
49813;BME280;35706;52.100;5.056;2023-11-18T02:33:38;102248.09;;;9.64;94.45
49813;BME280;35706;52.100;5.056;2023-11-18T02:34:48;102259.25;;;9.53;95.08
49813;BME280;35706;52.100;5.056;2023-11-18T02:35:53;102255.50;;;9.43;95.54
49813;BME280;35706;52.100;5.056;2023-11-18T02:36:58;102249.22;;;9.45;95.41
49813;BME280;35706;52.100;5.056;2023-11-18T02:38:01;102242.84;;;9.35;95.68
49813;BME280;35706;52.100;5.056;2023-11-18T02:39:30;102230.25;;;9.69;94.46
49813;BME280;35706;52.100;5.056;2023-11-18T02:40:39;102229.34;;;9.55;94.94
49813;BME280;35706;52.100;5.056;2023-11-18T02:41:46;102230.00;;;9.45;94.96
49813;BME280;35706;52.100;5.056;2023-11-18T02:42:48;102224.75;;;9.59;95.05
49813;BME280;35706;52.100;5.056;2023-11-18T02:43:53;102227.84;;;9.51;94.57
49813;BME280;35706;52.100;5.056;2023-11-18T02:44:54;102228.22;;;9.60;94.92
49813;BME280;35706;52.100;5.056;2023-11-18T02:46:01;102225.28;;;9.64;94.52
49813;BME280;35706;52.100;5.056;2023-11-18T02:47:03;102221.53;;;9.54;94.51
49813;BME280;35706;52.100;5.056;2023-11-18T02:48:05;102215.94;;;9.46;95.27
49813;BME280;35706;52.100;5.056;2023-11-18T02:49:07;102215.84;;;9.47;95.01
49813;BME280;35706;52.100;5.056;2023-11-18T02:50:08;102213.66;;;9.54;94.63
49813;BME280;35706;52.100;5.056;2023-11-18T02:51:10;102206.94;;;9.50;94.37
49813;BME280;35706;52.100;5.056;2023-11-18T02:52:12;102206.19;;;9.48;95.57
49813;BME280;35706;52.100;5.056;2023-11-18T02:53:13;102205.63;;;9.57;94.98
49813;BME280;35706;52.100;5.056;2023-11-18T02:54:13;102210.22;;;9.53;94.67
49813;BME280;35706;52.100;5.056;2023-11-18T02:55:13;102215.38;;;9.55;94.75
49813;BME280;35706;52.100;5.056;2023-11-18T02:56:14;102215.38;;;9.55;94.56
49813;BME280;35706;52.100;5.056;2023-11-18T02:57:15;102218.44;;;9.62;94.32
49813;BME280;35706;52.100;5.056;2023-11-18T02:58:15;102213.38;;;9.58;94.52
49813;BME280;35706;52.100;5.056;2023-11-18T02:59:17;102209.34;;;9.67;94.17
49813;BME280;35706;52.100;5.056;2023-11-18T03:00:18;102214.88;;;9.63;94.13
49813;BME280;35706;52.100;5.056;2023-11-18T03:01:21;102209.69;;;9.75;93.69
49813;BME280;35706;52.100;5.056;2023-11-18T03:02:24;102207.34;;;9.85;93.22
49813;BME280;35706;52.100;5.056;2023-11-18T03:03:27;102206.38;;;9.86;93.18
49813;BME280;35706;52.100;5.056;2023-11-18T03:04:28;102211.09;;;9.81;93.21
49813;BME280;35706;52.100;5.056;2023-11-18T03:05:30;102210.72;;;9.73;93.59
49813;BME280;35706;52.100;5.056;2023-11-18T03:06:31;102208.94;;;9.73;93.76
49813;BME280;35706;52.100;5.056;2023-11-18T03:07:32;102205.69;;;9.70;93.68
49813;BME280;35706;52.100;5.056;2023-11-18T03:08:33;102207.13;;;9.61;94.06
49813;BME280;35706;52.100;5.056;2023-11-18T03:09:34;102202.88;;;9.58;93.99
49813;BME280;35706;52.100;5.056;2023-11-18T03:10:35;102208.78;;;9.62;94.36
49813;BME280;35706;52.100;5.056;2023-11-18T03:11:35;102204.66;;;9.72;93.43
49813;BME280;35706;52.100;5.056;2023-11-18T03:12:36;102210.94;;;9.70;93.43
49813;BME280;35706;52.100;5.056;2023-11-18T03:13:38;102213.94;;;9.64;93.98
49813;BME280;35706;52.100;5.056;2023-11-18T03:14:38;102217.25;;;9.67;93.69
49813;BME280;35706;52.100;5.056;2023-11-18T03:15:38;102213.75;;;9.52;94.18
49813;BME280;35706;52.100;5.056;2023-11-18T03:16:39;102211.63;;;9.45;94.69
49813;BME280;35706;52.100;5.056;2023-11-18T03:17:39;102206.09;;;9.49;94.23
49813;BME280;35706;52.100;5.056;2023-11-18T03:18:43;102203.16;;;9.54;94.99
49813;BME280;35706;52.100;5.056;2023-11-18T03:19:43;102210.22;;;9.39;94.77
49813;BME280;35706;52.100;5.056;2023-11-18T03:20:44;102207.50;;;9.55;94.29
49813;BME280;35706;52.100;5.056;2023-11-18T03:21:44;102212.19;;;9.35;95.19
49813;BME280;35706;52.100;5.056;2023-11-18T03:22:47;102201.28;;;9.56;94.60
49813;BME280;35706;52.100;5.056;2023-11-18T03:23:47;102203.16;;;9.54;94.04
49813;BME280;35706;52.100;5.056;2023-11-18T03:24:48;102198.28;;;9.62;93.74
49813;BME280;35706;52.100;5.056;2023-11-18T03:25:49;102205.63;;;9.57;93.68
49813;BME280;35706;52.100;5.056;2023-11-18T03:26:51;102205.78;;;9.54;93.78
49813;BME280;35706;52.100;5.056;2023-11-18T03:27:52;102201.88;;;9.47;93.97
49813;BME280;35706;52.100;5.056;2023-11-18T03:28:54;102199.50;;;9.56;94.01
49813;BME280;35706;52.100;5.056;2023-11-18T03:29:54;102191.00;;;9.53;93.89
49813;BME280;35706;52.100;5.056;2023-11-18T03:30:55;102190.97;;;9.67;93.46
49813;BME280;35706;52.100;5.056;2023-11-18T03:31:55;102191.31;;;9.48;93.67
49813;BME280;35706;52.100;5.056;2023-11-18T03:32:55;102186.97;;;9.47;94.05
49813;BME280;35706;52.100;5.056;2023-11-18T03:33:56;102181.72;;;9.47;94.19
49813;BME280;35706;52.100;5.056;2023-11-18T03:34:56;102184.81;;;9.54;93.45
49813;BME280;35706;52.100;5.056;2023-11-18T03:35:58;102180.69;;;9.35;94.21
49813;BME280;35706;52.100;5.056;2023-11-18T03:36:59;102177.75;;;9.54;93.51
49813;BME280;35706;52.100;5.056;2023-11-18T03:38:00;102172.81;;;9.35;94.12
49813;BME280;35706;52.100;5.056;2023-11-18T03:39:00;102170.56;;;9.44;93.93
49813;BME280;35706;52.100;5.056;2023-11-18T03:40:01;102163.44;;;9.46;94.04
49813;BME280;35706;52.100;5.056;2023-11-18T03:41:02;102158.16;;;9.60;93.32
49813;BME280;35706;52.100;5.056;2023-11-18T03:42:02;102156.50;;;9.59;93.05
49813;BME280;35706;52.100;5.056;2023-11-18T03:43:03;102158.78;;;9.36;93.85
49813;BME280;35706;52.100;5.056;2023-11-18T03:44:04;102159.97;;;9.45;94.15
49813;BME280;35706;52.100;5.056;2023-11-18T03:45:05;102157.56;;;9.42;94.35
49813;BME280;35706;52.100;5.056;2023-11-18T03:46:07;102150.13;;;9.49;94.33
49813;BME280;35706;52.100;5.056;2023-11-18T03:47:07;102157.13;;;9.21;94.84
49813;BME280;35706;52.100;5.056;2023-11-18T03:48:08;102152.41;;;9.26;94.67
49813;BME280;35706;52.100;5.056;2023-11-18T03:49:08;102153.53;;;9.36;94.31
49813;BME280;35706;52.100;5.056;2023-11-18T03:50:09;102152.56;;;9.37;94.42
49813;BME280;35706;52.100;5.056;2023-11-18T03:51:10;102147.31;;;9.37;94.52
49813;BME280;35706;52.100;5.056;2023-11-18T03:52:10;102135.63;;;9.29;94.63
49813;BME280;35706;52.100;5.056;2023-11-18T03:53:11;102138.81;;;9.34;94.46
49813;BME280;35706;52.100;5.056;2023-11-18T03:54:11;102136.56;;;9.42;93.79
49813;BME280;35706;52.100;5.056;2023-11-18T03:55:13;102130.66;;;9.38;93.97
49813;BME280;35706;52.100;5.056;2023-11-18T03:56:16;102135.28;;;9.62;93.58
49813;BME280;35706;52.100;5.056;2023-11-18T03:57:18;102134.19;;;9.52;93.64
49813;BME280;35706;52.100;5.056;2023-11-18T03:58:19;102127.75;;;9.43;93.61
49813;BME280;35706;52.100;5.056;2023-11-18T03:59:19;102126.22;;;9.53;93.32
49813;BME280;35706;52.100;5.056;2023-11-18T04:00:20;102118.66;;;9.49;93.37
49813;BME280;35706;52.100;5.056;2023-11-18T04:01:24;102121.31;;;9.62;93.37
49813;BME280;35706;52.100;5.056;2023-11-18T04:02:28;102120.91;;;9.41;93.49
49813;BME280;35706;52.100;5.056;2023-11-18T04:03:29;102120.94;;;9.26;94.36
49813;BME280;35706;52.100;5.056;2023-11-18T04:04:29;102112.13;;;9.54;93.51
49813;BME280;35706;52.100;5.056;2023-11-18T04:05:29;102118.19;;;9.42;93.47
49813;BME280;35706;52.100;5.056;2023-11-18T04:06:30;102111.16;;;9.43;93.47
49813;BME280;35706;52.100;5.056;2023-11-18T04:07:30;102116.88;;;9.35;94.05
49813;BME280;35706;52.100;5.056;2023-11-18T04:08:31;102117.38;;;9.27;94.08
49813;BME280;35706;52.100;5.056;2023-11-18T04:09:32;102124.13;;;9.17;94.66
49813;BME280;35706;52.100;5.056;2023-11-18T04:10:32;102129.47;;;9.30;94.21
49813;BME280;35706;52.100;5.056;2023-11-18T04:11:33;102132.63;;;9.35;93.98
49813;BME280;35706;52.100;5.056;2023-11-18T04:12:33;102129.84;;;9.09;94.74
49813;BME280;35706;52.100;5.056;2023-11-18T04:13:33;102135.84;;;9.11;94.88
49813;BME280;35706;52.100;5.056;2023-11-18T04:14:33;102128.41;;;9.32;94.25
49813;BME280;35706;52.100;5.056;2023-11-18T04:15:34;102124.31;;;9.28;94.09
49813;BME280;35706;52.100;5.056;2023-11-18T04:16:35;102113.22;;;9.37;94.11
49813;BME280;35706;52.100;5.056;2023-11-18T04:17:35;102120.25;;;9.37;93.96
49813;BME280;35706;52.100;5.056;2023-11-18T04:18:36;102102.38;;;9.29;94.05
49813;BME280;35706;52.100;5.056;2023-11-18T04:19:36;102106.50;;;9.33;94.05
49813;BME280;35706;52.100;5.056;2023-11-18T04:20:37;102113.41;;;9.34;93.91
49813;BME280;35706;52.100;5.056;2023-11-18T04:21:37;102099.91;;;9.41;93.86
49813;BME280;35706;52.100;5.056;2023-11-18T04:22:40;102100.97;;;9.38;94.02
49813;BME280;35706;52.100;5.056;2023-11-18T04:23:42;102097.41;;;9.25;94.50
49813;BME280;35706;52.100;5.056;2023-11-18T04:24:42;102089.09;;;9.18;94.58
49813;BME280;35706;52.100;5.056;2023-11-18T04:25:45;102086.66;;;9.29;94.49
49813;BME280;35706;52.100;5.056;2023-11-18T04:26:45;102085.53;;;9.19;94.37
49813;BME280;35706;52.100;5.056;2023-11-18T04:27:48;102092.75;;;9.15;95.02
49813;BME280;35706;52.100;5.056;2023-11-18T04:28:48;102093.03;;;9.25;94.88
49813;BME280;35706;52.100;5.056;2023-11-18T04:29:49;102089.94;;;9.19;94.66
49813;BME280;35706;52.100;5.056;2023-11-18T04:30:49;102080.28;;;9.19;95.04
49813;BME280;35706;52.100;5.056;2023-11-18T04:31:50;102083.84;;;9.18;94.87
49813;BME280;35706;52.100;5.056;2023-11-18T04:32:50;102078.53;;;9.05;94.93
49813;BME280;35706;52.100;5.056;2023-11-18T04:33:52;102082.31;;;9.28;94.45
49813;BME280;35706;52.100;5.056;2023-11-18T04:34:53;102080.09;;;9.08;95.03
49813;BME280;35706;52.100;5.056;2023-11-18T04:35:53;102084.03;;;9.15;94.96
49813;BME280;35706;52.100;5.056;2023-11-18T04:36:53;102080.97;;;9.08;95.31
49813;BME280;35706;52.100;5.056;2023-11-18T04:37:54;102080.28;;;9.19;94.81
49813;BME280;35706;52.100;5.056;2023-11-18T04:38:54;102079.53;;;9.31;94.31
49813;BME280;35706;52.100;5.056;2023-11-18T04:39:54;102076.16;;;9.15;94.69
49813;BME280;35706;52.100;5.056;2023-11-18T04:40:55;102072.50;;;9.17;94.79
49813;BME280;35706;52.100;5.056;2023-11-18T04:41:55;102070.03;;;9.29;94.27
49813;BME280;35706;52.100;5.056;2023-11-18T04:42:56;102073.31;;;9.32;94.02
49813;BME280;35706;52.100;5.056;2023-11-18T04:43:57;102074.06;;;9.34;93.95
49813;BME280;35706;52.100;5.056;2023-11-18T04:44:57;102067.63;;;9.26;93.81
49813;BME280;35706;52.100;5.056;2023-11-18T04:45:59;102063.25;;;9.39;94.12
49813;BME280;35706;52.100;5.056;2023-11-18T04:46:59;102065.66;;;9.29;94.08
49813;BME280;35706;52.100;5.056;2023-11-18T04:48:01;102066.06;;;9.09;94.65
49813;BME280;35706;52.100;5.056;2023-11-18T04:49:01;102070.25;;;9.11;94.57
49813;BME280;35706;52.100;5.056;2023-11-18T04:50:02;102076.84;;;9.04;95.02
49813;BME280;35706;52.100;5.056;2023-11-18T04:51:03;102069.69;;;9.21;94.35
49813;BME280;35706;52.100;5.056;2023-11-18T04:52:04;102068.50;;;9.39;93.52
49813;BME280;35706;52.100;5.056;2023-11-18T04:53:06;102071.81;;;9.28;93.59
49813;BME280;35706;52.100;5.056;2023-11-18T04:54:08;102068.03;;;9.05;94.15
49813;BME280;35706;52.100;5.056;2023-11-18T04:55:08;102067.19;;;9.05;94.54
49813;BME280;35706;52.100;5.056;2023-11-18T04:56:10;102060.22;;;9.18;94.29
49813;BME280;35706;52.100;5.056;2023-11-18T04:57:10;102070.84;;;9.16;93.86
49813;BME280;35706;52.100;5.056;2023-11-18T04:58:11;102067.91;;;9.21;94.02
49813;BME280;35706;52.100;5.056;2023-11-18T04:59:11;102066.94;;;9.36;93.56
49813;BME280;35706;52.100;5.056;2023-11-18T05:00:12;102076.28;;;9.41;93.10
49813;BME280;35706;52.100;5.056;2023-11-18T05:01:16;102070.59;;;9.34;92.97
49813;BME280;35706;52.100;5.056;2023-11-18T05:02:16;102080.59;;;9.42;92.86
49813;BME280;35706;52.100;5.056;2023-11-18T05:03:17;102076.28;;;9.41;92.73
49813;BME280;35706;52.100;5.056;2023-11-18T05:04:17;102083.44;;;9.24;92.89
49813;BME280;35706;52.100;5.056;2023-11-18T05:05:18;102079.53;;;9.17;93.65
49813;BME280;35706;52.100;5.056;2023-11-18T05:06:18;102082.63;;;9.24;93.10
49813;BME280;35706;52.100;5.056;2023-11-18T05:07:20;102083.44;;;9.24;92.91
49813;BME280;35706;52.100;5.056;2023-11-18T05:08:22;102075.84;;;9.34;92.90
49813;BME280;35706;52.100;5.056;2023-11-18T05:09:22;102080.59;;;9.42;92.30
49813;BME280;35706;52.100;5.056;2023-11-18T05:10:22;102082.88;;;9.33;91.97
49813;BME280;35706;52.100;5.056;2023-11-18T05:11:23;102075.34;;;9.42;92.07
49813;BME280;35706;52.100;5.056;2023-11-18T05:12:23;102084.81;;;9.44;91.56
49813;BME280;35706;52.100;5.056;2023-11-18T05:13:23;102080.28;;;9.19;92.45
49813;BME280;35706;52.100;5.056;2023-11-18T05:14:24;102080.91;;;9.23;92.46
49813;BME280;35706;52.100;5.056;2023-11-18T05:15:24;102077.53;;;9.35;91.91
49813;BME280;35706;52.100;5.056;2023-11-18T05:16:27;102071.28;;;9.23;92.62
49813;BME280;35706;52.100;5.056;2023-11-18T05:17:28;102071.00;;;9.28;92.04
49813;BME280;35706;52.100;5.056;2023-11-18T05:18:28;102066.09;;;9.36;91.88
49813;BME280;35706;52.100;5.056;2023-11-18T05:19:33;102053.41;;;9.43;91.40
49813;BME280;35706;52.100;5.056;2023-11-18T05:20:33;102042.03;;;9.29;91.59
49813;BME280;35706;52.100;5.056;2023-11-18T05:21:34;102043.56;;;9.19;91.94
49813;BME280;35706;52.100;5.056;2023-11-18T05:22:35;102040.94;;;9.19;92.43
49813;BME280;35706;52.100;5.056;2023-11-18T05:23:36;102041.28;;;9.27;92.17
49813;BME280;35706;52.100;5.056;2023-11-18T05:24:37;102043.81;;;9.29;92.02
49813;BME280;35706;52.100;5.056;2023-11-18T05:25:41;102042.34;;;9.37;91.98